createdAt,value
2023-01-25T00:01:51.374Z,3.38
2023-01-25T00:04:20.610Z,2.70
2023-01-25T00:06:48.871Z,3.33
2023-01-25T00:09:17.708Z,1.90
2023-01-25T00:11:46.480Z,2.60
2023-01-25T00:14:16.917Z,3.10
2023-01-25T00:16:45.233Z,2.45
2023-01-25T00:19:13.594Z,3.17
2023-01-25T00:21:41.876Z,2.83
2023-01-25T00:24:11.819Z,2.15
2023-01-25T00:26:40.525Z,2.80
2023-01-25T00:29:08.925Z,2.22
2023-01-25T00:31:47.747Z,2.25
2023-01-25T00:34:45.401Z,4.15
2023-01-25T00:37:20.818Z,2.85
2023-01-25T00:39:49.059Z,2.72
2023-01-25T00:42:19.535Z,2.15
2023-01-25T00:44:48.097Z,2.55
2023-01-25T00:47:18.434Z,4.03
2023-01-25T00:49:47.304Z,2.97
2023-01-25T00:52:16.151Z,2.35
2023-01-25T00:54:44.387Z,2.85
2023-01-25T00:57:12.695Z,2.63
2023-01-25T00:59:44.434Z,2.30
2023-01-25T01:02:13.276Z,2.70
2023-01-25T01:04:43.047Z,1.70
2023-01-25T01:07:14.464Z,2.60
2023-01-25T01:09:42.945Z,2.13
2023-01-25T01:12:11.238Z,2.30
2023-01-25T01:14:39.654Z,2.72
2023-01-25T01:17:07.856Z,2.83
2023-01-25T01:19:36.263Z,1.85
2023-01-25T01:22:05.857Z,2.22
2023-01-25T01:24:34.162Z,2.53
2023-01-25T01:27:02.304Z,2.85
2023-01-25T01:29:30.553Z,2.25
2023-01-25T01:31:58.937Z,2.20
2023-01-25T01:34:27.724Z,2.95
2023-01-25T01:36:55.938Z,1.90
2023-01-25T01:39:25.539Z,3.40
2023-01-25T01:41:53.833Z,2.38
2023-01-25T01:44:43.085Z,2.08
2023-01-25T01:47:16.445Z,3.17
2023-01-25T01:49:51.160Z,2.20
2023-01-25T01:52:21.958Z,1.90
2023-01-25T01:54:57.130Z,1.92
2023-01-25T01:57:29.788Z,1.90
2023-01-25T02:00:03.907Z,3.00
2023-01-25T02:02:32.156Z,2.05
2023-01-25T02:05:05.364Z,2.90
2023-01-25T02:07:36.937Z,2.63
2023-01-25T02:10:09.115Z,3.38
2023-01-25T02:12:38.966Z,2.63
2023-01-25T02:15:08.720Z,2.70
2023-01-25T02:17:39.877Z,2.17
2023-01-25T02:20:15.336Z,1.90
2023-01-25T02:22:49.677Z,3.05
2023-01-25T02:25:19.537Z,3.40
2023-01-25T02:27:52.372Z,2.22
2023-01-25T02:30:20.674Z,2.67
2023-01-25T02:32:48.889Z,2.50
2023-01-25T02:35:21.671Z,2.42
2023-01-25T02:37:50.284Z,2.95
2023-01-25T02:40:20.469Z,2.08
2023-01-25T02:42:48.731Z,2.40
2023-01-25T02:45:23.752Z,2.42
2023-01-25T02:47:52.039Z,2.05
2023-01-25T02:50:20.442Z,2.70
2023-01-25T02:52:48.783Z,2.17
2023-01-25T02:55:17.073Z,1.98
2023-01-25T02:57:46.952Z,2.20
2023-01-25T03:00:15.672Z,2.97
2023-01-25T03:02:44.085Z,2.20
2023-01-25T03:05:12.273Z,2.25
2023-01-25T03:07:40.465Z,2.35
2023-01-25T03:10:09.619Z,3.70
2023-01-25T03:12:37.815Z,2.00
2023-01-25T03:15:09.628Z,3.05
2023-01-25T03:17:37.988Z,2.60
2023-01-25T03:20:06.892Z,1.90
2023-01-25T03:22:35.192Z,1.92
2023-01-25T03:25:03.416Z,2.53
2023-01-25T03:27:31.752Z,2.08
2023-01-25T03:30:00.109Z,1.95
2023-01-25T03:32:29.855Z,2.50
2023-01-25T03:34:59.128Z,2.03
2023-01-25T03:37:31.396Z,2.80
2023-01-25T03:39:59.822Z,1.75
2023-01-25T03:42:28.060Z,1.77
2023-01-25T03:44:56.171Z,1.88
2023-01-25T03:47:24.461Z,2.13
2023-01-25T03:49:54.123Z,2.08
2023-01-25T03:52:36.101Z,3.58
2023-01-25T03:55:04.480Z,2.03
2023-01-25T03:57:32.746Z,1.77
2023-01-25T04:00:00.972Z,1.88
2023-01-25T04:02:29.260Z,2.47
2023-01-25T04:04:58.947Z,2.85
2023-01-25T04:07:27.205Z,1.95
2023-01-25T04:09:55.430Z,1.65
2023-01-25T04:12:23.562Z,1.58
2023-01-25T04:14:51.793Z,1.58
2023-01-25T04:17:20.003Z,2.08
2023-01-25T04:19:48.256Z,1.90
2023-01-25T04:22:17.899Z,2.10
2023-01-25T04:24:46.253Z,2.45
2023-01-25T04:27:14.452Z,2.97
2023-01-25T04:29:42.645Z,2.30
2023-01-25T04:32:10.859Z,1.52
2023-01-25T04:34:39.073Z,2.35
2023-01-25T04:37:07.239Z,2.05
2023-01-25T04:39:36.780Z,2.00
2023-01-25T04:42:05.211Z,1.52
2023-01-25T04:44:33.512Z,1.75
2023-01-25T04:47:01.777Z,1.73
2023-01-25T04:49:30.056Z,2.45
2023-01-25T04:51:58.226Z,2.00
2023-01-25T04:54:26.433Z,2.38
2023-01-25T04:56:56.087Z,1.58
2023-01-25T04:59:24.327Z,1.67
2023-01-25T05:01:52.548Z,1.73
2023-01-25T05:04:21.042Z,2.85
2023-01-25T05:06:49.294Z,2.05
2023-01-25T05:09:17.827Z,1.60
2023-01-25T05:11:46.000Z,1.92
2023-01-25T05:14:15.495Z,2.33
2023-01-25T05:16:43.839Z,3.38
2023-01-25T05:19:12.369Z,2.13
2023-01-25T05:21:58.016Z,1.63
2023-01-25T05:24:26.740Z,1.48
2023-01-25T05:27:06.260Z,1.73
2023-01-25T05:29:38.131Z,1.80
2023-01-25T05:32:08.312Z,1.52
2023-01-25T05:34:37.337Z,1.67
2023-01-25T05:37:06.643Z,1.58
2023-01-25T05:39:34.900Z,0.88
2023-01-25T05:42:03.329Z,2.22
2023-01-25T05:44:31.572Z,1.55
2023-01-25T05:47:01.186Z,2.22
2023-01-25T05:49:29.357Z,1.73
2023-01-25T05:51:57.570Z,2.95
2023-01-25T05:54:25.900Z,1.52
2023-01-25T05:56:54.032Z,2.53
2023-01-25T05:59:22.172Z,1.30
2023-01-25T06:01:50.371Z,2.40
2023-01-25T06:04:19.943Z,1.17
2023-01-25T06:06:48.188Z,2.28
2023-01-25T06:09:16.812Z,1.52
2023-01-25T06:11:46.080Z,2.28
2023-01-25T06:14:14.460Z,1.65
2023-01-25T06:16:42.844Z,1.17
2023-01-25T06:19:13.306Z,1.98
2023-01-25T06:21:42.887Z,1.75
2023-01-25T06:24:11.380Z,1.77
2023-01-25T06:26:39.616Z,3.53
2023-01-25T06:29:08.103Z,2.25
2023-01-25T06:31:36.384Z,2.33
2023-01-25T06:34:06.577Z,1.95
2023-01-25T06:36:35.456Z,5.90
2023-01-25T06:39:05.261Z,1.80
2023-01-25T06:41:33.394Z,2.25
2023-01-25T06:44:01.516Z,3.10
2023-01-25T06:46:29.840Z,2.65
2023-01-25T06:48:58.145Z,2.00
2023-01-25T06:51:26.344Z,1.55
2023-01-25T06:53:54.598Z,1.42
2023-01-25T06:56:24.900Z,1.95
2023-01-25T06:58:53.145Z,3.07
2023-01-25T07:01:26.994Z,1.55
2023-01-25T07:03:57.859Z,1.80
2023-01-25T07:06:26.810Z,1.73
2023-01-25T07:08:55.410Z,2.10
2023-01-25T07:11:25.082Z,2.10
2023-01-25T07:13:53.146Z,2.05
2023-01-25T07:16:21.937Z,2.90
2023-01-25T07:18:50.606Z,2.15
2023-01-25T07:21:21.417Z,1.90
2023-01-25T07:23:50.347Z,4.70
2023-01-25T07:26:19.952Z,3.42
2023-01-25T07:28:50.118Z,5.70
2023-01-25T07:31:20.015Z,3.00
2023-01-25T07:33:50.419Z,4.68
2023-01-25T07:36:19.365Z,5.70
2023-01-25T07:38:47.649Z,7.57
2023-01-25T07:41:16.567Z,5.93
2023-01-25T07:43:44.858Z,5.28
2023-01-25T07:46:15.696Z,6.80
2023-01-25T07:48:48.719Z,4.97
2023-01-25T07:51:23.703Z,5.97
2023-01-25T07:53:54.143Z,6.22
2023-01-25T07:56:24.419Z,6.13
2023-01-25T07:58:54.527Z,6.67
2023-01-25T08:01:26.345Z,5.60
2023-01-25T08:03:56.547Z,5.13
2023-01-25T08:06:30.635Z,5.53
2023-01-25T08:09:00.248Z,7.53
2023-01-25T08:11:30.800Z,8.48
2023-01-25T08:14:01.975Z,5.07
2023-01-25T08:19:02.187Z,5.63
2023-01-25T08:21:32.569Z,8.30
2023-01-25T08:24:02.133Z,7.67
2023-01-25T08:26:31.613Z,5.13
2023-01-25T08:29:00.185Z,8.90
2023-01-25T08:31:30.340Z,12.00
2023-01-25T08:34:00.970Z,6.35
2023-01-25T08:36:29.683Z,7.65
2023-01-25T08:38:59.766Z,4.45
2023-01-25T08:41:29.820Z,8.95
2023-01-25T08:43:58.729Z,6.20
2023-01-25T08:46:31.949Z,6.47
2023-01-25T08:49:03.019Z,6.43
2023-01-25T08:51:32.539Z,9.18
2023-01-25T08:54:04.468Z,5.30
2023-01-25T08:56:32.734Z,9.73
2023-01-25T08:59:00.948Z,7.18
2023-01-25T09:01:29.221Z,8.98
2023-01-25T09:03:57.465Z,5.35
2023-01-25T09:06:27.127Z,5.20
2023-01-25T09:08:55.395Z,5.65
2023-01-25T09:11:24.366Z,6.70
2023-01-25T09:13:52.557Z,7.20
2023-01-25T09:16:29.091Z,6.47
2023-01-25T09:18:59.107Z,6.28
2023-01-25T09:21:29.338Z,5.53
2023-01-25T09:24:05.920Z,7.37
2023-01-25T09:26:36.381Z,5.00
2023-01-25T09:29:05.183Z,6.80
2023-01-25T09:31:33.398Z,5.43
2023-01-25T09:34:01.692Z,8.30
2023-01-25T09:36:31.300Z,12.73
2023-01-25T09:39:00.040Z,8.98
2023-01-25T09:41:45.789Z,7.60
2023-01-25T09:44:33.008Z,8.15
2023-01-25T09:47:05.959Z,8.05
2023-01-25T09:49:46.921Z,6.93
2023-01-25T09:52:56.807Z,5.72
2023-01-25T09:55:28.268Z,7.97
2023-01-25T09:58:00.393Z,7.22
2023-01-25T10:00:34.064Z,6.15
2023-01-25T10:03:12.331Z,6.18
2023-01-25T10:05:46.552Z,7.88
2023-01-25T10:08:23.675Z,8.93
2023-01-25T10:10:57.242Z,5.38
2023-01-25T10:13:31.770Z,5.13
2023-01-25T10:16:09.886Z,6.57
2023-01-25T10:18:50.234Z,5.10
2023-01-25T10:21:22.751Z,5.13
2023-01-25T10:24:09.778Z,6.13
2023-01-25T10:26:41.903Z,5.40
2023-01-25T10:29:16.760Z,6.20
2023-01-25T10:31:49.197Z,5.80
2023-01-25T10:34:20.782Z,5.63
2023-01-25T10:36:54.890Z,4.97
2023-01-25T10:39:25.077Z,4.25
2023-01-25T10:41:57.249Z,4.03
2023-01-25T10:44:28.862Z,6.07
2023-01-25T10:47:07.227Z,8.02
2023-01-25T10:49:42.792Z,7.63
2023-01-25T10:52:16.376Z,10.63
2023-01-25T10:54:46.462Z,6.82
2023-01-25T10:57:19.573Z,6.28
2023-01-25T10:59:50.158Z,4.47
2023-01-25T11:02:41.767Z,5.57
2023-01-25T11:05:28.001Z,5.07
2023-01-25T11:07:57.033Z,5.18
2023-01-25T11:10:34.681Z,6.15
2023-01-25T11:13:20.975Z,6.68
2023-01-25T11:15:52.883Z,3.78
2023-01-25T11:18:25.258Z,6.32
2023-01-25T11:21:07.610Z,9.82
2023-01-25T11:23:36.078Z,10.57
2023-01-25T11:26:16.003Z,5.78
2023-01-25T11:28:45.586Z,6.53
2023-01-25T11:31:15.858Z,5.38
2023-01-25T11:33:44.480Z,6.07
2023-01-25T11:36:30.049Z,6.13
2023-01-25T11:39:14.017Z,5.75
2023-01-25T11:42:03.615Z,6.50
2023-01-25T11:44:57.929Z,7.35
2023-01-25T11:47:40.110Z,5.70
2023-01-25T11:50:16.279Z,6.40
2023-01-25T11:53:01.608Z,9.00
2023-01-25T11:55:35.544Z,5.72
2023-01-25T11:58:18.411Z,4.78
2023-01-25T12:00:59.478Z,6.32
2023-01-25T12:06:28.163Z,8.15
2023-01-25T12:09:22.522Z,7.05
2023-01-25T12:12:04.612Z,7.85
2023-01-25T12:14:49.758Z,9.48
2023-01-25T12:17:29.554Z,5.15
2023-01-25T12:20:11.915Z,7.43
2023-01-25T12:22:59.250Z,7.13
2023-01-25T12:25:33.755Z,5.53
2023-01-25T12:28:12.840Z,5.68
2023-01-25T12:30:52.523Z,7.20
2023-01-25T12:33:25.208Z,7.57
2023-01-25T12:36:00.633Z,8.23
2023-01-25T12:38:33.973Z,6.95
2023-01-25T12:41:08.389Z,6.38
2023-01-25T12:43:41.629Z,5.97
2023-01-25T12:46:16.508Z,5.38
2023-01-25T12:48:51.255Z,7.10
2023-01-25T12:51:21.611Z,4.75
2023-01-25T12:53:51.908Z,5.33
2023-01-25T12:56:32.719Z,4.67
2023-01-25T12:59:09.321Z,10.35
2023-01-25T13:01:47.179Z,6.43
2023-01-25T13:04:41.403Z,6.07
2023-01-25T13:07:17.383Z,4.57
2023-01-25T13:09:52.790Z,4.57
2023-01-25T13:12:21.272Z,5.60
2023-01-25T13:14:49.550Z,7.25
2023-01-25T13:17:30.514Z,5.82
2023-01-25T13:19:59.584Z,5.35
2023-01-25T13:23:01.732Z,4.53
2023-01-25T13:25:29.924Z,9.55
2023-01-25T13:28:34.519Z,9.65
2023-01-25T13:31:02.913Z,6.85
2023-01-25T13:33:37.014Z,7.80
2023-01-25T13:36:39.799Z,7.95
2023-01-25T13:39:37.678Z,6.00
2023-01-25T13:42:18.525Z,5.07
2023-01-25T13:44:51.633Z,4.88
2023-01-25T13:47:23.320Z,6.15
2023-01-25T13:49:59.134Z,5.15
2023-01-25T13:52:31.157Z,4.20
2023-01-25T13:55:00.553Z,5.15
2023-01-25T13:57:30.370Z,4.75
2023-01-25T14:00:10.706Z,3.92
2023-01-25T14:02:40.983Z,6.13
2023-01-25T14:05:20.156Z,5.72
2023-01-25T14:07:52.209Z,4.93
2023-01-25T14:10:24.237Z,5.63
2023-01-25T14:12:54.290Z,7.07
2023-01-25T14:15:25.304Z,10.48
2023-01-25T14:20:36.103Z,6.03
2023-01-25T14:23:05.679Z,4.85
2023-01-25T14:25:34.934Z,5.07
2023-01-25T14:28:07.742Z,8.93
2023-01-25T14:30:37.681Z,6.82
2023-01-25T14:33:18.545Z,5.72
2023-01-25T14:35:55.423Z,4.82
2023-01-25T14:38:34.534Z,4.47
2023-01-25T14:41:08.802Z,4.10
2023-01-25T14:43:38.644Z,4.53
2023-01-25T14:46:24.530Z,5.10
2023-01-25T14:48:53.877Z,4.93
2023-01-25T14:51:28.846Z,5.05
2023-01-25T14:54:03.317Z,6.22
2023-01-25T14:56:36.121Z,6.65
2023-01-25T14:59:06.308Z,4.60
2023-01-25T15:01:40.648Z,6.63
2023-01-25T15:04:13.698Z,7.47
2023-01-25T15:06:48.947Z,6.43
2023-01-25T15:09:37.862Z,6.70
2023-01-25T15:12:24.950Z,5.57
2023-01-25T15:14:54.976Z,4.15
2023-01-25T15:17:45.697Z,4.72
2023-01-25T15:20:37.089Z,5.05
2023-01-25T15:23:23.151Z,5.32
2023-01-25T15:25:55.990Z,6.90
2023-01-25T15:28:25.727Z,6.88
2023-01-25T15:30:54.817Z,10.95
2023-01-25T15:33:25.481Z,7.30
2023-01-25T15:35:54.553Z,6.30
2023-01-25T15:38:25.143Z,5.05
2023-01-25T15:40:53.862Z,5.57
2023-01-25T15:43:22.131Z,4.53
2023-01-25T15:45:52.012Z,6.18
2023-01-25T15:48:24.136Z,5.05
2023-01-25T15:50:54.256Z,7.20
2023-01-25T15:53:24.462Z,7.47
2023-01-25T15:55:55.971Z,8.83
2023-01-25T15:58:27.816Z,8.02
2023-01-25T16:00:56.395Z,5.63
2023-01-25T16:03:24.634Z,4.63
2023-01-25T16:05:58.020Z,6.80
2023-01-25T16:08:28.303Z,6.55
2023-01-25T16:10:56.600Z,7.07
2023-01-25T16:13:25.192Z,5.15
2023-01-25T16:15:56.068Z,6.70
2023-01-25T16:18:24.256Z,6.45
2023-01-25T16:20:52.678Z,5.70
2023-01-25T16:23:20.906Z,7.28
2023-01-25T16:25:50.680Z,5.22
2023-01-25T16:28:18.999Z,6.72
2023-01-25T16:30:47.288Z,5.85
2023-01-25T16:33:15.714Z,5.78
2023-01-25T16:35:44.009Z,6.25
2023-01-25T16:38:13.167Z,9.38
2023-01-25T16:40:41.602Z,9.38
2023-01-25T16:43:11.222Z,8.55
2023-01-25T16:45:39.843Z,7.50
2023-01-25T16:48:08.530Z,8.63
2023-01-25T16:50:36.727Z,11.15
2023-01-25T16:53:05.060Z,9.70
2023-01-25T16:55:33.415Z,11.38
2023-01-25T16:58:01.792Z,6.78
2023-01-25T17:00:31.478Z,10.15
2023-01-25T17:03:00.145Z,8.38
2023-01-25T17:05:32.990Z,8.27
2023-01-25T17:08:01.313Z,7.30
2023-01-25T17:10:33.255Z,7.13
2023-01-25T17:13:01.470Z,10.43
2023-01-25T17:15:31.249Z,12.77
2023-01-25T17:17:59.525Z,15.45
2023-01-25T17:20:27.944Z,16.40
2023-01-25T17:22:56.091Z,9.95
2023-01-25T17:25:25.745Z,14.32
2023-01-25T17:27:54.113Z,9.00
2023-01-25T17:30:22.410Z,7.80
2023-01-25T17:32:52.116Z,12.25
2023-01-25T17:35:20.508Z,10.00
2023-01-25T17:37:48.719Z,8.63
2023-01-25T17:40:17.381Z,8.50
2023-01-25T17:42:45.773Z,8.27
2023-01-25T17:45:14.083Z,9.77
2023-01-25T17:47:42.310Z,12.88
2023-01-25T17:50:12.951Z,13.77
2023-01-25T17:52:41.435Z,8.73
2023-01-25T17:55:10.353Z,9.50
2023-01-25T17:57:38.686Z,8.32
2023-01-25T18:00:11.806Z,9.88
2023-01-25T18:02:40.473Z,11.50
2023-01-25T18:05:09.486Z,6.57
2023-01-25T18:07:39.271Z,11.45
2023-01-25T18:10:09.265Z,10.18
2023-01-25T18:12:38.470Z,7.07
2023-01-25T18:15:08.055Z,9.32
2023-01-25T18:17:38.816Z,11.25
2023-01-25T18:20:10.678Z,5.13
2023-01-25T18:22:41.706Z,9.73
2023-01-25T18:27:56.866Z,7.50
2023-01-25T18:30:35.390Z,8.20
2023-01-25T18:33:03.882Z,8.13
2023-01-25T18:35:32.804Z,9.25
2023-01-25T18:38:02.861Z,8.95
2023-01-25T18:40:31.150Z,9.93
2023-01-25T18:42:59.500Z,6.15
2023-01-25T18:45:27.754Z,8.30
2023-01-25T18:47:56.180Z,8.18
2023-01-25T18:50:24.593Z,12.60
2023-01-25T18:52:53.722Z,14.18
2023-01-25T18:55:23.719Z,13.40
2023-01-25T18:57:52.206Z,11.30
2023-01-25T19:00:20.676Z,16.20
2023-01-25T19:02:48.921Z,13.60
2023-01-25T19:05:20.065Z,13.98
2023-01-25T19:07:48.346Z,10.18
2023-01-25T19:10:16.900Z,13.27
2023-01-25T19:12:46.574Z,10.55
2023-01-25T19:15:14.971Z,10.82
2023-01-25T19:17:43.285Z,11.95
2023-01-25T19:20:12.433Z,10.23
2023-01-25T19:22:41.265Z,9.57
2023-01-25T19:25:10.467Z,8.27
2023-01-25T19:27:39.001Z,8.23
2023-01-25T19:30:10.287Z,7.28
2023-01-25T19:32:38.657Z,10.10
2023-01-25T19:35:07.851Z,12.88
2023-01-25T19:37:36.300Z,9.90
2023-01-25T19:40:04.914Z,10.85
2023-01-25T19:42:33.181Z,12.48
2023-01-25T19:45:03.000Z,9.65
2023-01-25T19:47:33.417Z,5.70
2023-01-25T19:50:02.843Z,10.70
2023-01-25T19:52:31.093Z,11.60
2023-01-25T19:54:59.444Z,11.35
2023-01-25T19:57:27.778Z,7.40
2023-01-25T19:59:55.932Z,7.82
2023-01-25T20:02:24.225Z,9.45
2023-01-25T20:04:54.791Z,13.10
2023-01-25T20:07:23.465Z,5.60
2023-01-25T20:09:52.119Z,7.57
2023-01-25T20:12:20.394Z,9.43
2023-01-25T20:14:48.756Z,6.97
2023-01-25T20:17:17.006Z,7.65
2023-01-25T20:19:45.301Z,6.32
2023-01-25T20:22:15.067Z,6.22
2023-01-25T20:24:43.267Z,9.95
2023-01-25T20:27:11.684Z,8.68
2023-01-25T20:29:40.132Z,7.88
2023-01-25T20:32:09.690Z,8.80
2023-01-25T20:34:38.163Z,7.05
2023-01-25T20:37:06.409Z,5.38
2023-01-25T20:39:36.022Z,7.15
2023-01-25T20:42:04.280Z,7.75
2023-01-25T20:44:32.602Z,7.55
2023-01-25T20:47:00.954Z,8.25
2023-01-25T20:49:29.342Z,6.72
2023-01-25T20:51:57.595Z,4.53
2023-01-25T20:54:25.815Z,8.05
2023-01-25T20:56:55.437Z,8.55
2023-01-25T20:59:23.795Z,5.35
2023-01-25T21:01:52.147Z,6.45
2023-01-25T21:04:20.588Z,5.88
2023-01-25T21:06:48.754Z,7.22
2023-01-25T21:09:17.570Z,5.80
2023-01-25T21:11:45.873Z,5.38
2023-01-25T21:14:15.703Z,4.88
2023-01-25T21:16:43.841Z,6.07
2023-01-25T21:19:12.228Z,6.82
2023-01-25T21:21:40.492Z,5.95
2023-01-25T21:24:10.095Z,6.32
2023-01-25T21:26:38.599Z,8.05
2023-01-25T21:29:08.080Z,4.35
2023-01-25T21:31:39.126Z,6.88
2023-01-25T21:34:09.251Z,6.68
2023-01-25T21:36:37.686Z,5.25
2023-01-25T21:39:06.068Z,5.38
2023-01-25T21:41:34.997Z,7.82
2023-01-25T21:44:21.480Z,6.90
2023-01-25T21:49:56.653Z,6.88
2023-01-25T21:52:24.894Z,6.00
2023-01-25T21:54:53.328Z,7.28
2023-01-25T21:57:21.778Z,5.50
2023-01-25T21:59:51.920Z,6.03
2023-01-25T22:02:22.886Z,5.15
2023-01-25T22:04:51.149Z,6.82
2023-01-25T22:07:19.361Z,4.63
2023-01-25T22:09:49.490Z,6.38
2023-01-25T22:12:17.812Z,4.20
2023-01-25T22:14:46.183Z,7.68
2023-01-25T22:17:14.441Z,4.95
2023-01-25T22:19:44.152Z,6.90
2023-01-25T22:22:12.307Z,5.70
2023-01-25T22:24:40.630Z,6.53
2023-01-25T22:27:31.694Z,5.15
2023-01-25T22:29:59.951Z,5.65
2023-01-25T22:32:28.283Z,6.95
2023-01-25T22:34:57.908Z,5.10
2023-01-25T22:37:26.115Z,6.82
2023-01-25T22:39:58.427Z,4.68
2023-01-25T22:42:26.742Z,5.13
2023-01-25T22:44:55.035Z,6.45
2023-01-25T22:47:23.340Z,4.40
2023-01-25T22:49:51.743Z,5.70
2023-01-25T22:52:21.373Z,4.43
2023-01-25T22:54:51.023Z,5.50
2023-01-25T22:57:19.433Z,5.53
2023-01-25T22:59:47.763Z,5.88
2023-01-25T23:02:15.983Z,5.35
2023-01-25T23:04:44.282Z,4.75
2023-01-25T23:07:18.997Z,6.13
2023-01-25T23:09:51.642Z,5.70
2023-01-25T23:12:20.071Z,4.85
2023-01-25T23:14:51.591Z,5.07
2023-01-25T23:17:37.716Z,5.63
2023-01-25T23:20:07.384Z,6.40
2023-01-25T23:22:35.768Z,4.32
2023-01-25T23:25:06.263Z,5.63
2023-01-25T23:27:34.594Z,3.97
2023-01-25T23:30:02.990Z,5.00
2023-01-25T23:32:31.254Z,5.20
2023-01-25T23:34:59.596Z,5.15
2023-01-25T23:37:28.293Z,4.22
2023-01-25T23:39:56.730Z,4.82
2023-01-25T23:42:26.472Z,5.13
2023-01-25T23:44:54.901Z,5.18
2023-01-25T23:47:23.366Z,6.93
2023-01-25T23:49:51.699Z,5.50
2023-01-25T23:52:19.961Z,6.57
2023-01-25T23:54:48.198Z,6.78
2023-01-25T23:57:16.585Z,5.18
2023-01-25T23:59:46.139Z,5.20
